Time;durP1;ratioP1;P1;durP2;ratioP2;P2;SDS_P1;SDS_P2;PMS_P1;PMS_P2;Temp;Humidity;BMP_temperature;BMP_pressure;BME280_temperature;BME280_humidity;BME280_pressure;Samples;Min_cycle;Max_cycle;Signal;HPM_P1;HPM_P2
2021/10/25 00:01:09;;;;;;;4.68;2.30;;;16.80;58.30;;;;;;5032681;28;20028;-71
2021/10/25 00:03:35;;;;;;;3.85;2.00;;;16.80;58.80;;;;;;5032676;28;20021;-70
2021/10/25 00:06:01;;;;;;;6.18;2.40;;;16.80;58.80;;;;;;5032812;28;20025;-71
2021/10/25 00:08:27;;;;;;;6.05;2.42;;;16.80;58.90;;;;;;5032576;28;20026;-70
2021/10/25 00:10:53;;;;;;;4.80;2.15;;;16.80;57.40;;;;;;5032713;28;20032;-72
2021/10/25 00:13:19;;;;;;;5.38;2.90;;;16.80;57.30;;;;;;5032714;28;20041;-71
2021/10/25 00:15:44;;;;;;;5.28;2.33;;;16.70;57.30;;;;;;5032589;28;20014;-72
2021/10/25 00:18:10;;;;;;;9.25;2.58;;;16.80;57.80;;;;;;5032553;28;20080;-71
2021/10/25 00:20:36;;;;;;;5.93;2.50;;;16.80;57.50;;;;;;5034237;28;20184;-72
2021/10/25 00:23:03;;;;;;;5.07;2.13;;;16.80;57.30;;;;;;5036157;28;20061;-72
2021/10/25 00:25:28;;;;;;;4.35;1.98;;;16.70;57.40;;;;;;5036234;28;20051;-71
2021/10/25 00:27:54;;;;;;;5.65;2.55;;;16.70;57.50;;;;;;5036252;28;20439;-72
2021/10/25 00:30:20;;;;;;;7.10;2.38;;;16.60;57.40;;;;;;5036133;28;20033;-71
2021/10/25 00:32:46;;;;;;;6.30;3.03;;;16.60;57.70;;;;;;5036320;28;20052;-72
2021/10/25 00:35:11;;;;;;;5.78;2.20;;;16.50;57.50;;;;;;5036098;28;20053;-72
2021/10/25 00:37:37;;;;;;;4.65;2.22;;;16.50;57.50;;;;;;5036209;28;20128;-71
2021/10/25 00:40:04;;;;;;;4.28;2.05;;;16.40;58.00;;;;;;5036171;28;20033;-71
2021/10/25 00:42:30;;;;;;;6.07;2.08;;;16.40;57.60;;;;;;5035909;28;20494;-71
2021/10/25 00:44:55;;;;;;;5.90;2.30;;;16.30;57.60;;;;;;5036261;28;20025;-72
2021/10/25 00:47:21;;;;;;;6.13;1.95;;;16.20;57.80;;;;;;5035991;28;20416;-72
2021/10/25 00:49:47;;;;;;;4.70;2.08;;;16.20;58.50;;;;;;5036281;28;20032;-71
2021/10/25 00:52:14;;;;;;;5.28;2.10;;;16.20;58.00;;;;;;5035925;28;20022;-70
2021/10/25 00:54:40;;;;;;;4.95;2.00;;;16.10;57.90;;;;;;5035956;28;20029;-72
2021/10/25 00:57:06;;;;;;;5.00;2.30;;;16.10;58.10;;;;;;5035761;28;20155;-71
2021/10/25 00:59:32;;;;;;;5.05;2.30;;;16.10;58.00;;;;;;5035709;28;20100;-70
2021/10/25 01:01:59;;;;;;;4.93;2.13;;;16.20;58.00;;;;;;5035997;28;20029;-71
2021/10/25 01:04:26;;;;;;;3.75;2.17;;;16.20;57.80;;;;;;5046084;28;20049;-71
2021/10/25 01:06:52;;;;;;;4.60;2.05;;;16.10;57.60;;;;;;5042282;28;20053;-71
2021/10/25 01:09:18;;;;;;;4.65;2.17;;;16.20;57.90;;;;;;5034235;28;20057;-72
2021/10/25 01:11:45;;;;;;;3.83;1.65;;;16.10;57.80;;;;;;5035110;28;20494;-71
2021/10/25 01:14:11;;;;;;;5.78;2.13;;;16.10;57.70;;;;;;5035388;28;20034;-71
2021/10/25 01:16:37;;;;;;;8.23;2.85;;;16.10;57.50;;;;;;5035353;28;20056;-72
2021/10/25 01:19:03;;;;;;;9.07;2.22;;;16.10;57.70;;;;;;5035177;28;20079;-71
2021/10/25 01:21:29;;;;;;;7.95;2.22;;;16.00;57.60;;;;;;5035430;28;20045;-71
2021/10/25 01:23:56;;;;;;;4.45;2.20;;;16.00;57.70;;;;;;5035283;28;20430;-70
2021/10/25 01:26:23;;;;;;;4.35;1.90;;;16.00;57.80;;;;;;5040192;28;20029;-71
2021/10/25 01:28:50;;;;;;;4.22;1.85;;;16.00;57.90;;;;;;5040809;28;20029;-70
2021/10/25 01:31:18;;;;;;;6.57;2.28;;;16.00;57.70;;;;;;5034299;28;20063;-70
2021/10/25 01:33:48;;;;;;;3.85;1.95;;;16.00;57.80;;;;;;5035270;28;20059;-71
2021/10/25 01:36:15;;;;;;;4.55;2.33;;;16.00;58.10;;;;;;5034960;28;20036;-71
2021/10/25 01:38:41;;;;;;;4.50;1.90;;;16.00;58.30;;;;;;5037953;28;20032;-69
2021/10/25 01:41:08;;;;;;;3.53;1.90;;;16.00;58.10;;;;;;5054514;28;20025;-71
2021/10/25 01:43:35;;;;;;;7.22;2.40;;;15.90;58.30;;;;;;5054432;28;20028;-71
2021/10/25 01:46:01;;;;;;;4.28;2.10;;;16.00;58.30;;;;;;5054756;28;20431;-72
2021/10/25 01:48:27;;;;;;;4.70;1.85;;;16.00;58.30;;;;;;5054749;28;20551;-71
2021/10/25 01:50:53;;;;;;;4.90;2.80;;;16.00;58.40;;;;;;5054566;28;20053;-70
2021/10/25 01:53:20;;;;;;;6.55;2.10;;;16.00;58.20;;;;;;5054337;28;20083;-70
2021/10/25 01:55:49;;;;;;;4.45;2.05;;;15.90;58.00;;;;;;5054286;28;20053;-71
2021/10/25 01:58:15;;;;;;;5.20;1.92;;;15.90;58.20;;;;;;5054457;28;20051;-69
2021/10/25 02:00:41;;;;;;;5.13;2.00;;;15.90;58.20;;;;;;5054364;28;20398;-70
2021/10/25 02:03:06;;;;;;;4.38;1.80;;;15.90;58.10;;;;;;5054190;28;20111;-70
2021/10/25 02:05:32;;;;;;;5.05;1.90;;;15.90;58.00;;;;;;5054365;28;20425;-73
2021/10/25 02:07:58;;;;;;;4.35;1.73;;;15.90;58.00;;;;;;5054157;28;20029;-70
2021/10/25 02:10:24;;;;;;;5.47;2.20;;;15.90;58.10;;;;;;5054345;28;20032;-71
2021/10/25 02:12:50;;;;;;;5.80;2.25;;;15.90;58.10;;;;;;5054304;28;20087;-71
2021/10/25 02:15:15;;;;;;;4.60;1.98;;;15.90;58.30;;;;;;5054172;28;20036;-73
2021/10/25 02:17:41;;;;;;;5.32;1.95;;;15.90;58.10;;;;;;5054104;28;20153;-70
2021/10/25 02:20:07;;;;;;;4.15;1.92;;;15.90;58.40;;;;;;5053935;28;20091;-71
2021/10/25 02:22:33;;;;;;;8.07;2.15;;;15.90;58.00;;;;;;5054656;28;20048;-71
2021/10/25 02:24:59;;;;;;;3.92;2.00;;;15.90;58.20;;;;;;5054228;28;20402;-70
2021/10/25 02:27:24;;;;;;;5.47;2.22;;;15.80;58.20;;;;;;5053984;28;20021;-70
2021/10/25 02:29:50;;;;;;;4.35;2.00;;;15.80;58.20;;;;;;5053730;28;20071;-72
2021/10/25 02:32:16;;;;;;;5.13;2.05;;;15.70;58.30;;;;;;5054029;28;20021;-71
2021/10/25 02:34:45;;;;;;;3.65;1.83;;;15.70;58.40;;;;;;5053845;28;20025;-71
2021/10/25 02:37:12;;;;;;;5.10;2.22;;;15.70;58.50;;;;;;5053922;28;20028;-70
2021/10/25 02:39:38;;;;;;;3.80;1.80;;;15.70;58.80;;;;;;5054128;28;20102;-72
2021/10/25 02:42:04;;;;;;;3.47;1.70;;;15.70;58.70;;;;;;5053058;28;20037;-72
2021/10/25 02:44:29;;;;;;;4.10;1.88;;;15.70;58.80;;;;;;5053383;28;20029;-71
2021/10/25 02:46:55;;;;;;;5.10;2.30;;;15.70;58.30;;;;;;5053652;28;20056;-71
2021/10/25 02:49:22;;;;;;;5.45;2.28;;;15.60;58.40;;;;;;5053727;28;20098;-71
2021/10/25 02:51:48;;;;;;;4.03;1.73;;;15.60;58.50;;;;;;5053511;28;20025;-70
2021/10/25 02:54:13;;;;;;;6.00;1.90;;;15.60;58.40;;;;;;5053763;28;20075;-70
2021/10/25 02:56:39;;;;;;;3.78;1.90;;;15.50;58.30;;;;;;5053465;28;20489;-71
2021/10/25 02:59:11;;;;;;;4.32;1.67;;;15.50;58.40;;;;;;5053560;28;20032;-71
2021/10/25 03:01:37;;;;;;;4.97;1.70;;;15.40;59.10;;;;;;5053383;28;20577;-70
2021/10/25 03:04:07;;;;;;;8.88;2.50;;;15.40;58.90;;;;;;5053752;28;20370;-71
2021/10/25 03:06:34;;;;;;;6.10;2.00;;;15.40;58.80;;;;;;5053264;28;20064;-71
2021/10/25 03:09:01;;;;;;;4.15;2.28;;;15.30;58.90;;;;;;5053271;28;20028;-71
2021/10/25 03:11:28;;;;;;;3.97;1.70;;;15.30;59.30;;;;;;5051851;28;20028;-70
2021/10/25 03:13:54;;;;;;;5.97;1.90;;;15.40;59.30;;;;;;5053252;28;20028;-71
2021/10/25 03:16:21;;;;;;;5.28;1.98;;;15.30;59.10;;;;;;5053265;28;20033;-72
2021/10/25 03:18:47;;;;;;;3.15;1.88;;;15.20;59.20;;;;;;5053520;28;20179;-70
2021/10/25 03:21:13;;;;;;;5.05;2.20;;;15.20;59.40;;;;;;5052609;28;20135;-70
2021/10/25 03:23:40;;;;;;;3.90;1.83;;;15.10;59.20;;;;;;5053104;28;20107;-71
2021/10/25 03:26:06;;;;;;;8.75;2.20;;;15.10;59.50;;;;;;5053032;28;20021;-70
2021/10/25 03:28:33;;;;;;;5.65;2.03;;;15.00;59.40;;;;;;5053037;28;20087;-70
2021/10/25 03:30:59;;;;;;;4.82;2.10;;;15.00;59.70;;;;;;5052829;28;20511;-69
2021/10/25 03:33:25;;;;;;;3.58;1.90;;;15.00;59.60;;;;;;5052972;28;20124;-70
2021/10/25 03:35:51;;;;;;;5.32;1.92;;;15.00;59.60;;;;;;5052824;28;20036;-71
2021/10/25 03:38:18;;;;;;;5.78;2.00;;;15.00;59.50;;;;;;5052868;28;20025;-70
2021/10/25 03:40:47;;;;;;;4.10;1.88;;;15.00;59.60;;;;;;5052831;28;20028;-70
2021/10/25 03:43:13;;;;;;;8.40;2.08;;;15.00;59.30;;;;;;5052865;28;20025;-70
2021/10/25 03:45:53;;;;;;;6.40;2.30;;;15.00;59.30;;;;;;5052804;28;20033;-72
2021/10/25 03:51:06;;;;;;;6.35;2.10;;;15.10;59.70;;;;;;5053113;28;20091;-70
2021/10/25 03:53:54;;;;;;;5.53;2.08;;;15.10;59.20;;;;;;5053288;28;20025;-72
2021/10/25 04:13:04;;;;;;;6.32;2.22;;;15.10;59.30;;;;;;5065581;28;20119;-71
2021/10/25 04:26:16;;;;;;;7.88;1.83;;;14.90;59.70;;;;;;5056308;28;20075;-71
2021/10/25 04:28:43;;;;;;;5.53;2.17;;;14.90;59.70;;;;;;5056100;28;20441;-69
2021/10/25 04:31:09;;;;;;;5.72;1.88;;;14.90;59.80;;;;;;5055962;28;20021;-71
2021/10/25 04:33:35;;;;;;;6.00;2.42;;;14.90;59.90;;;;;;5056276;28;20024;-72
2021/10/25 04:36:00;;;;;;;6.65;2.30;;;14.90;59.70;;;;;;5056707;28;20025;-71
2021/10/25 04:38:26;;;;;;;4.38;1.88;;;14.90;60.00;;;;;;5055074;28;20107;-72
2021/10/25 04:40:52;;;;;;;7.88;2.22;;;14.90;59.80;;;;;;5056304;28;20481;-74
2021/10/25 04:43:18;;;;;;;5.38;2.38;;;14.80;59.80;;;;;;5055991;28;20037;-73
2021/10/25 04:45:44;;;;;;;5.40;2.00;;;14.80;60.40;;;;;;5056024;28;20458;-71
2021/10/25 04:48:10;;;;;;;3.92;2.03;;;14.90;60.70;;;;;;5055885;28;20025;-70
2021/10/25 04:50:36;;;;;;;5.47;2.28;;;14.80;60.20;;;;;;5054446;28;20104;-71
2021/10/25 04:53:02;;;;;;;9.50;2.97;;;14.80;60.20;;;;;;5055725;28;20021;-71
2021/10/25 04:55:28;;;;;;;5.22;2.15;;;14.80;60.70;;;;;;5055578;28;20029;-71
2021/10/25 04:57:54;;;;;;;8.55;2.17;;;14.70;60.00;;;;;;5055938;28;20031;-69
2021/10/25 05:00:20;;;;;;;8.30;2.10;;;14.70;60.80;;;;;;5055710;28;20048;-70
2021/10/25 05:02:46;;;;;;;4.40;2.13;;;14.70;60.30;;;;;;5055697;28;20501;-70
2021/10/25 05:05:11;;;;;;;4.65;2.40;;;14.80;60.00;;;;;;5054986;28;20025;-69
2021/10/25 05:07:37;;;;;;;8.55;2.20;;;14.80;60.60;;;;;;5055309;28;20358;-71
2021/10/25 05:10:04;;;;;;;7.53;1.90;;;14.70;60.60;;;;;;5054179;28;20017;-71
2021/10/25 05:12:31;;;;;;;5.43;2.30;;;14.60;60.40;;;;;;5055536;28;20083;-69
2021/10/25 05:14:57;;;;;;;4.00;2.03;;;14.60;60.80;;;;;;5055580;28;20029;-71
2021/10/25 05:17:23;;;;;;;6.15;1.85;;;14.70;60.60;;;;;;5055455;28;20040;-70
2021/10/25 05:19:49;;;;;;;5.25;2.08;;;14.70;60.50;;;;;;5055207;28;20033;-70
2021/10/25 05:22:15;;;;;;;4.22;1.90;;;14.70;60.70;;;;;;5055099;28;20045;-71
2021/10/25 05:24:42;;;;;;;8.48;2.40;;;14.70;60.30;;;;;;5055371;28;20120;-70
2021/10/25 05:27:10;;;;;;;6.85;2.80;;;14.80;60.80;;;;;;5055217;28;20032;-70
2021/10/25 05:29:36;;;;;;;7.65;2.22;;;14.80;60.50;;;;;;5055368;28;20033;-70
2021/10/25 05:32:02;;;;;;;6.03;2.30;;;14.80;60.40;;;;;;5054775;28;20175;-71
2021/10/25 05:34:29;;;;;;;4.70;1.98;;;14.80;60.30;;;;;;5055096;28;20025;-70
2021/10/25 05:36:55;;;;;;;4.75;2.03;;;14.70;60.40;;;;;;5055058;28;20025;-74
2021/10/25 05:39:21;;;;;;;4.47;2.25;;;14.70;60.40;;;;;;5054823;28;20488;-70
2021/10/25 05:41:47;;;;;;;6.47;1.98;;;14.60;60.40;;;;;;5054663;28;20108;-71
2021/10/25 05:44:12;;;;;;;9.18;2.55;;;14.60;60.80;;;;;;5054818;28;20017;-71
2021/10/25 05:46:39;;;;;;;6.38;2.28;;;14.60;60.80;;;;;;5054753;28;20068;-71
2021/10/25 05:49:05;;;;;;;6.18;1.98;;;14.60;60.60;;;;;;5054980;28;20025;-69
2021/10/25 05:51:32;;;;;;;7.40;2.22;;;14.50;60.60;;;;;;5054601;28;20025;-72
2021/10/25 05:54:02;;;;;;;7.13;2.08;;;14.50;60.90;;;;;;5054407;28;20036;-71
2021/10/25 05:56:28;;;;;;;5.05;2.10;;;14.50;60.80;;;;;;5054318;28;20071;-72
2021/10/25 05:58:53;;;;;;;4.43;2.00;;;14.50;60.70;;;;;;5051255;28;20032;-71
2021/10/25 06:01:22;;;;;;;5.07;1.85;;;14.50;60.60;;;;;;5036216;28;20052;-73
2021/10/25 06:03:53;;;;;;;11.23;3.00;;;14.60;60.60;;;;;;5034799;28;20103;-72
2021/10/25 06:06:18;;;;;;;8.02;2.05;;;14.70;60.70;;;;;;5041248;28;20124;-71
2021/10/25 06:08:44;;;;;;;5.38;2.22;;;14.70;60.40;;;;;;5040957;28;20034;-71
2021/10/25 06:11:10;;;;;;;7.40;3.25;;;14.70;60.30;;;;;;5048832;28;20021;-71
2021/10/25 06:13:40;;;;;;;6.80;2.30;;;14.80;60.30;;;;;;5039199;28;20498;-72
2021/10/25 06:18:35;;;;;;;4.90;2.10;;;14.90;60.80;;;;;;5034214;28;20029;-70
2021/10/25 06:21:02;;;;;;;6.18;2.45;;;15.00;60.00;;;;;;5033990;28;20053;-71
2021/10/25 06:23:28;;;;;;;6.28;2.60;;;15.00;60.00;;;;;;5050425;28;20041;-72
2021/10/25 06:25:54;;;;;;;8.80;2.65;;;15.00;59.90;;;;;;5053211;28;20438;-71
2021/10/25 06:28:23;;;;;;;8.38;2.67;;;15.00;59.90;;;;;;5053257;28;20106;-71
2021/10/25 06:31:01;;;;;;;5.97;2.30;;;15.10;59.90;;;;;;5053296;28;20440;-71
2021/10/25 06:33:28;;;;;;;6.82;2.47;;;15.10;59.80;;;;;;5053266;28;20340;-71
2021/10/25 06:36:12;;;;;;;6.75;2.20;;;15.10;59.60;;;;;;5040039;28;20021;-70
2021/10/25 06:39:08;;;;;;;4.53;2.38;;;15.10;60.00;;;;;;5033909;28;20030;-70
2021/10/25 06:41:27;;;;;;;4.45;2.00;;;15.10;59.70;;;;;;5033466;28;20483;-70
2021/10/25 06:43:53;;;;;;;5.20;2.15;;;15.10;60.00;;;;;;5033170;28;20032;-71
2021/10/25 06:46:19;;;;;;;8.50;2.70;;;15.10;59.50;;;;;;5033493;28;20028;-70
2021/10/25 06:48:46;;;;;;;6.28;2.35;;;15.10;59.50;;;;;;5033384;28;20029;-71
2021/10/25 06:51:12;;;;;;;6.70;2.78;;;15.10;59.80;;;;;;5032824;28;20394;-70
2021/10/25 06:53:38;;;;;;;7.00;2.30;;;15.10;59.60;;;;;;5050065;28;20036;-70
2021/10/25 06:56:04;;;;;;;13.88;2.72;;;15.10;59.50;;;;;;5053123;28;20094;-71
2021/10/25 06:58:30;;;;;;;10.65;2.80;;;15.10;59.40;;;;;;5052987;28;20086;-70
2021/10/25 07:00:58;;;;;;;8.88;3.00;;;15.00;59.70;;;;;;5050780;28;20033;-71
2021/10/25 07:03:25;;;;;;;5.93;2.30;;;15.10;60.00;;;;;;5036159;28;20136;-70
2021/10/25 07:05:51;;;;;;;8.93;2.60;;;15.10;59.60;;;;;;5053127;28;20033;-71
2021/10/25 07:08:17;;;;;;;6.55;2.42;;;15.10;59.50;;;;;;5052978;28;20031;-72
2021/10/25 07:10:43;;;;;;;8.65;2.85;;;15.20;59.50;;;;;;5053045;28;20013;-70
2021/10/25 07:13:09;;;;;;;8.77;2.47;;;15.20;59.60;;;;;;5052946;28;20101;-70
2021/10/25 07:15:38;;;;;;;7.25;2.28;;;15.20;59.40;;;;;;5053170;28;20035;-70
2021/10/25 07:18:14;;;;;;;6.53;2.47;;;15.20;59.30;;;;;;5052626;28;20029;-72
2021/10/25 08:09:05;;;;;;;7.97;2.97;;;16.10;58.30;;;;;;5052081;28;20468;-71
2021/10/25 08:11:54;;;;;;;8.25;2.80;;;16.20;58.30;;;;;;5052350;28;20057;-71
2021/10/25 08:14:27;;;;;;;6.57;2.35;;;16.30;58.40;;;;;;5051977;28;20033;-70
2021/10/25 08:16:55;;;;;;;7.15;2.67;;;16.40;57.50;;;;;;5052181;28;20028;-71
2021/10/25 08:19:25;;;;;;;9.50;2.80;;;16.50;57.40;;;;;;5052116;28;20032;-71
2021/10/25 08:22:05;;;;;;;5.68;2.58;;;16.50;57.00;;;;;;5051956;28;20049;-71
2021/10/25 08:24:34;;;;;;;8.73;2.53;;;16.60;57.50;;;;;;5052565;28;20056;-71
2021/10/25 08:27:01;;;;;;;7.47;2.55;;;16.60;57.30;;;;;;5052147;28;20029;-71
2021/10/25 08:29:27;;;;;;;12.35;2.63;;;16.60;56.80;;;;;;5051980;28;20026;-70
2021/10/25 08:39:57;;;;;;;13.60;4.30;;;16.90;57.10;;;;;;5051995;28;20032;-71
2021/10/25 08:42:30;;;;;;;11.57;3.35;;;17.00;56.80;;;;;;5055044;28;20116;-71
2021/10/25 08:45:22;;;;;;;12.90;3.63;;;17.10;56.90;;;;;;5055636;28;20023;-70
2021/10/25 08:47:49;;;;;;;9.27;3.22;;;17.10;56.70;;;;;;5055783;28;20100;-71
2021/10/25 08:50:21;;;;;;;8.23;3.88;;;17.20;56.70;;;;;;5055611;28;20029;-71
2021/10/25 08:52:47;;;;;;;8.88;3.40;;;17.20;56.70;;;;;;5056014;28;20099;-71
2021/10/25 08:55:16;;;;;;;12.50;3.22;;;17.30;56.70;;;;;;5055636;28;20060;-71
2021/10/25 08:57:42;;;;;;;10.77;4.10;;;17.30;56.60;;;;;;5055498;28;20017;-72
2021/10/25 09:00:11;;;;;;;10.15;3.50;;;17.40;56.50;;;;;;5055255;28;20032;-72
2021/10/25 09:02:39;;;;;;;9.63;3.45;;;17.50;56.80;;;;;;5055130;28;20447;-72
2021/10/25 09:05:07;;;;;;;8.55;3.55;;;17.50;56.70;;;;;;5055136;28;20136;-72
2021/10/25 09:07:50;;;;;;;9.05;3.47;;;17.60;56.70;;;;;;5055086;28;20029;-72
2021/10/25 09:10:30;;;;;;;8.93;3.83;;;17.60;56.30;;;;;;5055277;28;20146;-71
2021/10/25 09:13:17;;;;;;;6.75;3.42;;;17.70;56.30;;;;;;5054135;28;20274;-72
2021/10/25 09:15:58;;;;;;;8.98;3.47;;;17.70;56.60;;;;;;5054901;28;20075;-73
2021/10/25 09:18:29;;;;;;;12.07;3.45;;;17.80;56.50;;;;;;5055366;28;20054;-72
2021/10/25 09:21:06;;;;;;;10.57;3.72;;;17.90;56.00;;;;;;5054788;28;20079;-72
2021/10/25 09:23:59;;;;;;;11.25;3.40;;;17.90;55.90;;;;;;5053684;28;20039;-71
2021/10/25 09:26:29;;;;;;;7.20;3.13;;;18.00;56.60;;;;;;5054624;28;20050;-72
2021/10/25 09:29:00;;;;;;;8.55;3.63;;;18.00;57.00;;;;;;5054991;28;20067;-72
2021/10/25 09:31:33;;;;;;;9.40;3.55;;;18.10;56.90;;;;;;5055203;28;20025;-71
2021/10/25 09:34:12;;;;;;;7.05;3.30;;;18.20;57.00;;;;;;5054888;28;20485;-72
2021/10/25 09:36:47;;;;;;;11.55;3.72;;;18.20;56.80;;;;;;5055078;28;20035;-72
2021/10/25 09:39:22;;;;;;;9.10;3.28;;;18.30;55.70;;;;;;5054788;28;20434;-73
2021/10/25 09:50:22;;;;;;;8.05;3.17;;;18.50;54.90;;;;;;5054325;28;20487;-71
2021/10/25 09:52:48;;;;;;;9.02;3.20;;;18.60;55.90;;;;;;5054282;28;20033;-71
2021/10/25 09:55:17;;;;;;;7.85;3.60;;;18.80;55.80;;;;;;5054405;28;20060;-72
2021/10/25 10:00:15;;;;;;;9.85;3.65;;;19.00;55.70;;;;;;5054486;28;20029;-72
2021/10/25 10:02:46;;;;;;;10.35;3.33;;;19.00;55.60;;;;;;5054200;28;20041;-71
2021/10/25 10:05:14;;;;;;;8.55;3.70;;;19.10;54.80;;;;;;5054505;28;20017;-74
2021/10/25 10:07:40;;;;;;;8.65;3.08;;;19.20;54.60;;;;;;5054578;28;20197;-74
2021/10/25 10:10:12;;;;;;;8.85;4.05;;;19.30;54.50;;;;;;5054323;28;20021;-73
2021/10/25 10:12:40;;;;;;;18.17;4.38;;;19.40;54.50;;;;;;5054546;28;20029;-73
2021/10/25 10:15:06;;;;;;;11.57;3.63;;;19.60;54.40;;;;;;5054255;28;20474;-71
2021/10/25 10:17:48;;;;;;;8.98;3.08;;;19.70;53.80;;;;;;5054108;28;20055;-73
2021/10/25 10:20:20;;;;;;;7.07;3.17;;;19.80;52.20;;;;;;5054002;28;20444;-71
2021/10/25 10:22:49;;;;;;;7.53;3.72;;;19.90;53.60;;;;;;5053907;28;20025;-71
2021/10/25 10:25:30;;;;;;;9.43;3.83;;;20.10;53.50;;;;;;5054372;28;20025;-71
2021/10/25 10:28:03;;;;;;;9.52;3.78;;;20.30;53.20;;;;;;5054252;28;20025;-71
2021/10/25 10:30:32;;;;;;;19.88;4.10;;;20.30;52.50;;;;;;5053897;28;20381;-72
2021/10/25 10:33:00;;;;;;;11.77;3.80;;;20.40;52.80;;;;;;5053891;28;20025;-72
2021/10/25 10:35:36;;;;;;;9.55;3.92;;;20.50;52.80;;;;;;5053974;28;20029;-71
2021/10/25 10:38:02;;;;;;;14.65;4.00;;;20.70;52.80;;;;;;5054031;28;20031;-71
2021/10/25 10:40:37;;;;;;;12.63;3.97;;;20.80;52.40;;;;;;5053604;28;20017;-74
2021/10/25 10:43:03;;;;;;;10.65;3.45;;;20.90;52.20;;;;;;5053788;28;20060;-72
2021/10/25 10:45:29;;;;;;;10.10;3.88;;;21.00;51.90;;;;;;5053750;28;20122;-70
2021/10/25 10:48:02;;;;;;;7.20;3.58;;;21.00;51.60;;;;;;5052307;28;20029;-73
2021/10/25 10:50:55;;;;;;;13.55;3.83;;;21.10;50.80;;;;;;5053548;28;20032;-74
2021/10/25 10:53:37;;;;;;;11.30;3.50;;;21.20;51.50;;;;;;5053817;28;20036;-72
2021/10/25 10:56:18;;;;;;;9.63;3.80;;;21.30;51.00;;;;;;5053713;28;20025;-72
2021/10/25 11:01:19;;;;;;;7.97;3.38;;;21.30;51.50;;;;;;5053751;28;20375;-72
2021/10/25 11:03:56;;;;;;;11.50;4.13;;;21.40;51.60;;;;;;5053025;28;20073;-74
2021/10/25 11:06:29;;;;;;;10.60;4.53;;;21.30;51.50;;;;;;5054402;28;20025;-72
2021/10/25 11:08:56;;;;;;;7.83;3.20;;;21.30;51.40;;;;;;5053763;28;20052;-72
2021/10/25 11:11:22;;;;;;;7.43;3.38;;;21.40;51.10;;;;;;5052725;28;20270;-72
2021/10/25 11:13:53;;;;;;;8.07;3.17;;;21.40;51.10;;;;;;5052962;28;20025;-72
2021/10/25 11:16:41;;;;;;;7.38;3.13;;;21.40;51.10;;;;;;5053077;28;20029;-72
2021/10/25 11:19:09;;;;;;;6.63;3.40;;;21.50;50.90;;;;;;5053257;28;20079;-74
2021/10/25 11:21:41;;;;;;;7.43;3.10;;;21.50;50.80;;;;;;5052712;28;20049;-73
2021/10/25 11:24:15;;;;;;;9.57;3.35;;;21.70;49.80;;;;;;5052920;28;20033;-74
2021/10/25 11:26:46;;;;;;;10.27;3.88;;;21.70;49.60;;;;;;5053047;28;20048;-73
2021/10/25 11:29:12;;;;;;;12.27;3.78;;;21.70;50.50;;;;;;5051352;28;20025;-73
2021/10/25 11:31:43;;;;;;;11.05;3.13;;;21.70;50.50;;;;;;5052807;28;20028;-72
2021/10/25 11:34:15;;;;;;;9.77;3.05;;;21.70;49.50;;;;;;5052640;28;20056;-71
2021/10/25 11:36:57;;;;;;;6.75;2.97;;;21.60;50.20;;;;;;5052774;28;20033;-74
2021/10/25 11:39:28;;;;;;;9.10;3.40;;;21.60;50.20;;;;;;5053104;28;20029;-74
2021/10/25 11:41:54;;;;;;;7.00;3.05;;;21.50;50.30;;;;;;5052685;28;20037;-72
2021/10/25 11:44:20;;;;;;;8.52;3.20;;;21.50;50.30;;;;;;5052542;28;20098;-73
2021/10/25 11:46:46;;;;;;;11.75;3.92;;;21.50;50.60;;;;;;5052510;28;20021;-71
2021/10/25 11:49:19;;;;;;;8.95;3.40;;;21.50;50.50;;;;;;5052444;28;20075;-71
2021/10/25 11:51:50;;;;;;;9.27;3.90;;;21.50;50.50;;;;;;5052485;28;20543;-71
2021/10/25 11:54:16;;;;;;;9.55;3.30;;;21.50;50.40;;;;;;5052572;28;20390;-71
2021/10/25 11:56:50;;;;;;;6.25;3.25;;;21.50;50.10;;;;;;5052426;28;20132;-70
2021/10/25 11:59:16;;;;;;;;;;;21.60;50.10;;;;;;5051555;28;20432;-71
2021/10/25 12:01:43;;;;;;;8.98;3.58;;;21.60;49.30;;;;;;5052659;28;20227;-72
2021/10/25 12:04:09;;;;;;;8.73;3.75;;;21.70;50.20;;;;;;5052681;28;20477;-72
2021/10/25 12:06:35;;;;;;;10.77;3.75;;;21.80;49.90;;;;;;5052564;28;20033;-72
2021/10/25 12:09:06;;;;;;;9.63;4.20;;;21.90;49.50;;;;;;5052484;28;20421;-74
2021/10/25 12:14:10;;;;;;;10.20;3.90;;;22.10;49.20;;;;;;5052670;28;20029;-72
2021/10/25 12:16:39;;;;;;;9.80;3.83;;;22.20;48.70;;;;;;5056547;28;20037;-71
2021/10/25 12:19:09;;;;;;;10.75;4.13;;;22.30;48.70;;;;;;5056409;28;20049;-71
2021/10/25 12:21:36;;;;;;;7.47;3.05;;;22.40;48.30;;;;;;5056180;28;20494;-73
2021/10/25 12:24:11;;;;;;;9.52;4.13;;;22.50;48.10;;;;;;5056285;28;20121;-71
2021/10/25 12:26:39;;;;;;;10.13;3.83;;;22.60;47.60;;;;;;5056279;28;20136;-72
2021/10/25 12:29:18;;;;;;;11.65;3.92;;;22.70;47.60;;;;;;5056274;28;20434;-71
2021/10/25 12:31:49;;;;;;;8.18;3.63;;;22.60;47.50;;;;;;5056224;28;20025;-72
2021/10/25 12:34:15;;;;;;;10.85;3.80;;;22.60;47.30;;;;;;5056138;28;20028;-71
2021/10/25 12:36:44;;;;;;;10.82;3.90;;;22.60;47.40;;;;;;5056047;28;20029;-72
2021/10/25 12:39:17;;;;;;;9.05;3.92;;;22.60;47.40;;;;;;5056091;28;20111;-71
2021/10/25 12:41:55;;;;;;;10.88;4.28;;;22.60;47.40;;;;;;5055887;28;20327;-72
2021/10/25 12:44:40;;;;;;;13.57;4.40;;;22.60;47.50;;;;;;5054427;28;20100;-73
2021/10/25 12:47:19;;;;;;;11.52;3.85;;;22.60;47.50;;;;;;5055758;28;20086;-72
2021/10/25 12:49:57;;;;;;;9.23;3.80;;;22.50;47.20;;;;;;5055816;28;20021;-72
2021/10/25 12:52:28;;;;;;;14.75;4.90;;;22.50;47.40;;;;;;5055862;28;20028;-72
2021/10/25 12:55:01;;;;;;;10.65;4.65;;;22.50;48.00;;;;;;5055623;28;20488;-73
2021/10/25 12:57:33;;;;;;;11.55;4.32;;;22.50;47.40;;;;;;5055822;28;20028;-72
2021/10/25 13:00:12;;;;;;;13.77;5.53;;;22.60;47.90;;;;;;5055399;28;20071;-71
2021/10/25 13:02:46;;;;;;;17.60;4.95;;;22.60;47.60;;;;;;5055532;28;20083;-71
2021/10/25 13:05:16;;;;;;;10.55;4.55;;;22.60;46.90;;;;;;5055872;28;20028;-72
2021/10/25 13:07:51;;;;;;;8.73;4.55;;;22.60;47.90;;;;;;5053958;28;20021;-73
2021/10/25 13:10:19;;;;;;;10.85;4.30;;;22.50;47.90;;;;;;5055439;28;20033;-72
2021/10/25 13:12:45;;;;;;;10.90;4.38;;;22.50;47.90;;;;;;5055500;28;20078;-73
2021/10/25 13:15:11;;;;;;;12.05;4.18;;;22.40;48.00;;;;;;5055332;28;20033;-72
2021/10/25 13:17:37;;;;;;;10.57;3.70;;;22.40;47.80;;;;;;5055269;28;20021;-71
2021/10/25 13:20:08;;;;;;;12.27;4.55;;;22.30;47.80;;;;;;5055073;28;20032;-72
2021/10/25 13:22:34;;;;;;;11.23;4.18;;;22.20;47.50;;;;;;5055105;28;20033;-74
2021/10/25 13:24:59;;;;;;;14.05;4.22;;;22.30;48.20;;;;;;5055110;28;20028;-72
2021/10/25 13:27:25;;;;;;;12.35;4.43;;;22.30;48.10;;;;;;5055335;28;20408;-71
2021/10/25 13:29:52;;;;;;;10.30;3.90;;;22.30;48.10;;;;;;5054834;28;20063;-71
2021/10/25 13:32:19;;;;;;;10.73;3.88;;;22.30;47.60;;;;;;5055032;28;20135;-72
2021/10/25 13:34:45;;;;;;;10.20;3.92;;;22.30;47.90;;;;;;5054629;28;20350;-72
2021/10/25 13:37:11;;;;;;;9.77;3.78;;;22.40;48.10;;;;;;5054560;28;20021;-73
2021/10/25 13:39:37;;;;;;;8.93;3.83;;;22.40;48.60;;;;;;5054641;28;20538;-73
2021/10/25 13:42:05;;;;;;;11.75;4.60;;;22.50;48.10;;;;;;5054982;28;20041;-73
2021/10/25 13:44:31;;;;;;;13.32;4.03;;;22.50;48.10;;;;;;5054669;28;20029;-70
2021/10/25 13:46:57;;;;;;;9.98;3.72;;;22.50;48.00;;;;;;5054240;28;20161;-71
2021/10/25 13:49:24;;;;;;;11.32;4.40;;;22.50;47.70;;;;;;5054072;28;20378;-72
2021/10/25 13:51:50;;;;;;;15.52;4.95;;;22.50;48.00;;;;;;5054172;28;20047;-73
2021/10/25 13:54:16;;;;;;;15.20;4.25;;;22.50;48.10;;;;;;5054138;28;20021;-72
2021/10/25 13:56:42;;;;;;;9.27;4.10;;;22.50;48.00;;;;;;5054123;28;20063;-71
2021/10/25 13:59:08;;;;;;;14.00;4.75;;;22.50;47.90;;;;;;5054237;28;20017;-72
2021/10/25 14:01:34;;;;;;;12.38;4.60;;;22.50;47.90;;;;;;5054046;28;20032;-73
2021/10/25 14:04:00;;;;;;;7.75;4.10;;;22.50;48.10;;;;;;5053703;28;20083;-71
2021/10/25 14:06:29;;;;;;;11.13;4.30;;;22.40;48.00;;;;;;5054142;28;20020;-73
2021/10/25 14:08:55;;;;;;;15.88;5.28;;;22.40;47.90;;;;;;5054652;28;20021;-73
2021/10/25 14:11:27;;;;;;;16.25;4.50;;;22.40;48.10;;;;;;5055565;28;20024;-72
2021/10/25 14:16:40;;;;;;;14.30;4.10;;;22.40;48.40;;;;;;5064130;28;20033;-72
2021/10/25 14:19:06;;;;;;;9.02;4.30;;;22.30;48.00;;;;;;5076682;28;20040;-71
2021/10/25 14:21:34;;;;;;;14.90;5.38;;;22.30;48.50;;;;;;5065119;28;20118;-72
2021/10/25 14:24:01;;;;;;;14.38;4.35;;;22.20;48.30;;;;;;5055032;28;20063;-71
2021/10/25 14:26:27;;;;;;;12.35;5.07;;;22.20;48.70;;;;;;5055227;28;20017;-72
2021/10/25 14:28:53;;;;;;;9.50;4.10;;;22.20;48.80;;;;;;5054709;28;20033;-71
2021/10/25 14:31:20;;;;;;;10.98;4.05;;;22.10;48.60;;;;;;5054610;28;20029;-72
2021/10/25 14:33:45;;;;;;;16.33;4.85;;;22.10;48.90;;;;;;5054577;28;20380;-71
2021/10/25 14:36:12;;;;;;;13.93;5.43;;;22.10;48.90;;;;;;5054031;28;20431;-70
2021/10/25 14:43:41;;;;;;;14.15;4.28;;;22.00;49.10;;;;;;5053992;28;20048;-70
2021/10/25 14:46:10;;;;;;;12.52;4.55;;;22.00;49.00;;;;;;5054161;28;20029;-72